Reading, PA (19605)

9:37 AM EDT on September 02, 2015 (GMT -0400)
Greenfields | | Change Station
CLOSE
Current Station
Personal Weather Station
Location: Reading, PA
Elevation: 250 ft
Nearby Weather Stations

Elev 250 ft 40.37 °N, 75.96 °W | Updated 6 seconds ago

Clear
Clear
73.7 °F
Feels Like 73 °F
N
0.0
Wind Variable Wind from NW
Gusts 0.0 mph

Today
High -- | Low -- °F
--% Chance of Precip.
Yesterday
High -- | Low -- °F
Precip. -- in
6:31 AM 7:34 PM
Waning Gibbous, 80% visible
Pressure 30.06 in
Visibility 4.0 miles
Clouds Clear
Heat Index 73 °F
Dew Point 70 °F
Humidity 87%
Rainfall 0.00 in
Snow Depth Not available.
UV 2 out of 12
Pollen 9.50 out of 12
Air Quality Not available.
Flu Activity Not available.
METAR KRDG 021254Z 00000KT 4SM BR HZ CLR 22/19 A3005 RMK AO2 SLP177 T02220194
Pressure 30.06 in
Visibility 4.0 miles
Clouds Clear
Heat Index 73 °F
Dew Point 70 °F
Humidity 87%
Rainfall 0.00 in
Snow Depth Not available.
UV 2 out of 12
Pollen 9.50 out of 12
Air Quality Not available.
Flu Activity Not available.
METAR KRDG 021254Z 00000KT 4SM BR HZ CLR 22/19 A3005 RMK AO2 SLP177 T02220194

10-Day Weather Forecast

×

Almanac

Astronomy

Sep. 02, 2015 Rise Set
Actual Time
Civil Twilight
Nautical Twilight
Astronomical Twilight
Moon
Length of Visible Light
Length of Day
Tomorrow will be .
, % of the Moon is Illuminated

Today's Extremes

State Highs State Lows

Community

WunderPhotos

Upload Photos

1,851,751 photos uploaded!

WunderBlogs® & News

Nearby

Air Quality

  Air Quality AQ Index Pollutant
Not available.

Snow Depth

Station Depth Elevation

Earthquake Activity

City Distance Mag. Time & Date
Minimum magnitude displayed is 2.5.

Coastal Water Temperatures

Place Temperature

Stations

Nearby Weather Stations

Station Location Temp. Windchill Dew Point Humidity Wind Precip. Elev Updated Type